HOURLY OBS INDEX

015

Northern Plateau--Barkly/Alice Spgs

ALICE SPRINGS AIRPORT

Site: 015590
Alt: 546.0m
11km SSE of ALICE SPRINGS


  Time     Wind        Temp  DP   Baro     Rain since   Rain past  Vis(m), Cloud(base in m), Weather
  local        km/h                         9am  last   hr   10m    
Tue 19:30  ESE 11/ 13  10.5 -7.7  1022.9    0.0   0.0   0.0   0.0   10000 
Tue 20:00  SSE 11/ 13   9.2 -7.9  1023.9    0.0   0.0   0.0   0.0   10000 
Tue 20:30    E 11/ 13   9.8 -6.5  1023.8    0.0   0.0   0.0   0.0   10000 
Tue 21:00   NE  9/ 13   7.8 -7.4  1023.9    0.0   0.0   0.0   0.0   10000 
Tue 21:30    C  0/  0   6.8 -6.5  1023.9    0.0   0.0   0.0   0.0   10000 
Tue 22:00    C  0/  0   5.2 -7.6  1024.0    0.0   0.0   0.0   0.0   10000 
Tue 22:30   SW  7/  9   5.2 -7.9  1024.0    0.0   0.0   0.0   0.0   10000 
Tue 23:00  SSW 11/ 13   4.9 -8.2  1024.2    0.0   0.0   0.0   0.0   10000 
Tue 23:30  WSW  7/  9   4.5 -8.2  1024.3    0.0   0.0   0.0   0.0   10000 
Wed 00:00  WNW 11/ 11   5.4 -6.8  1024.3    0.0   0.0   0.0   0.0   10000 
Wed 00:30   NW  9/ 11   5.3 -6.2  1024.4    0.0   0.0   0.0   0.0   10000 
Wed 00:30   NW  9/ 11   5.3 -6.2  1024.4    0.0   0.0  ----   0.0   10000 

JERVOIS

Site: 015602
Alt: 328.0m
247km ENE of ALICE SPRINGS


  Time     Wind        Temp  DP   Baro     Rain since   Rain past  Vis(m), Cloud(base in m), Weather
  local        km/h                         9am  last   hr   10m    
Tue 19:30  SSE  9/ 11  10.4 -7.3  1023.3    0.0   0.0   0.0   0.0   ----- 
Tue 20:00   SE  9/ 11  11.2 -6.6  1023.3    0.0   0.0   0.0   0.0   ----- 
Tue 20:30  SSE  9/ 11  10.6 -6.7  1023.6    0.0   0.0   0.0   0.0   ----- 
Tue 21:00  SSE  9/ 11   9.5 -7.2  1023.8    0.0   0.0   0.0   0.0   ----- 
Tue 21:30    S  7/ 11   7.7 -7.5  1023.9    0.0   0.0   0.0   0.0   ----- 
Tue 22:00  SSE  7/  9   6.9 -7.5  1024.1    0.0   0.0   0.0   0.0   ----- 
Tue 22:30    S  6/  7   5.6 -7.9  1024.0    0.0   0.0   0.0   0.0   ----- 
Tue 23:00    S  7/ 11   4.3 -8.4  1024.2    0.0   0.0   0.0   0.0   ----- 
Tue 23:30    S  7/ 11   4.7 -6.8  1024.1    0.0   0.0   0.0   0.0   ----- 
Wed 00:00    S  7/ 11   4.1 -6.7  1023.9    0.0   0.0   0.0   0.0   ----- 
Wed 00:30    S  6/  7   4.0 -7.1  1023.6    0.0   0.0   0.0   0.0   ----- 
Wed 00:30    S  6/  7   4.0 -7.1  1023.6    0.0   0.0  ----   0.0   ----- 

RABBIT FLAT

Site: 015666
Alt: 340.0m
296km NW of YUENDUMU


  Time     Wind        Temp  DP   Baro     Rain since   Rain past  Vis(m), Cloud(base in m), Weather
  local        km/h                         9am  last   hr   10m    
Tue 19:30  ESE  7/  9  15.5 -8.7  1020.8    0.0   0.0   0.0   0.0   ----- 
Tue 20:00  ESE  7/  9  12.7-11.0  1021.0    0.0   0.0   0.0   0.0   ----- 
Tue 20:30  ESE  6/  9  10.8 -9.5  1021.3    0.0   0.0   0.0   0.0   ----- 
Tue 21:00    S 13/ 15  11.5 -7.8  1021.5    0.0   0.0   0.0   0.0   ----- 
Tue 21:30    S  9/ 11  12.1 -7.8  1021.8    0.0   0.0   0.0   0.0   ----- 
Tue 22:00    S 11/ 13  11.6 -8.3  1021.8    0.0   0.0   0.0   0.0   ----- 
Tue 22:30    S 11/ 13  10.9 -7.8  1021.8    0.0   0.0   0.0   0.0   ----- 
Tue 23:00    S 13/ 15  11.5 -7.3  1021.9    0.0   0.0   0.0   0.0   ----- 
Tue 23:30    S 13/ 15  11.3 -7.5  1021.9    0.0   0.0   0.0   0.0   ----- 
Wed 00:00    S 11/ 13  10.6 -7.6  1021.9    0.0   0.0   0.0   0.0   ----- 
Wed 00:30    S 13/ 15  11.3 -7.5  1021.9    0.0   0.0   0.0   0.0   ----- 
Wed 00:30    S 13/ 15  11.3 -7.5  1021.9    0.0   0.0  ----   0.0   ----- 

TENNANT CREEK AIRPORT

Site: 015135
Alt: 375.7m
1km NW of TENNANT CREEK


  Time     Wind        Temp  DP   Baro     Rain since   Rain past  Vis(m), Cloud(base in m), Weather
  local        km/h                         9am  last   hr   10m    
Tue 19:30  ESE  9/ 11  16.9 -6.8  1021.2    0.0   0.0   0.0   0.0   10000 
Tue 20:00   SE 11/ 13  17.2 -7.3  1021.7    0.0   0.0   0.0   0.0   10000 
Tue 20:30  ENE 11/ 11  14.6 -6.8  1021.8    0.0   0.0   0.0   0.0   10000 
Tue 21:00    E 13/ 13  14.5 -6.9  1021.6    0.0   0.0   0.0   0.0   10000 
Tue 21:30    E 11/ 13  15.3 -6.3  1021.7    0.0   0.0   0.0   0.0   10000 
Tue 22:00    E 15/ 15  14.7 -6.8  1021.5    0.0   0.0   0.0   0.0   10000 
Tue 22:30  ESE 15/ 19  15.4 -6.8  1021.5    0.0   0.0   0.0   0.0   10000 
Tue 23:00    E 13/ 19  14.9 -7.2  1021.7    0.0   0.0   0.0   0.0   10000 
Tue 23:30    E 15/ 19  14.3 -6.5  1021.6    0.0   0.0   0.0   0.0   10000 
Wed 00:00    E 15/ 20  14.2 -6.6  1021.5    0.0   0.0   0.0   0.0   10000 
Wed 00:30    E 15/ 20  13.1 -7.0  1021.5    0.0   0.0   0.0   0.0   10000 
Wed 00:30    E 15/ 20  13.1 -7.0  1021.5    0.0   0.0  ----   0.0   10000 

TERRITORY GRAPE FARM

Site: 015643
Alt: 565.6m
141km N of ALICE SPRINGS


  Time     Wind        Temp  DP   Baro     Rain since   Rain past  Vis(m), Cloud(base in m), Weather
  local        km/h                         9am  last   hr   10m    
Tue 19:30  ESE  9/ 11  11.8 -8.1  1022.2    0.0   0.0   0.0   0.0   ----- 
Tue 20:00   SE  9/  9  12.3 -7.1  1022.7    0.0   0.0   0.0   0.0   ----- 
Tue 20:30    E 13/ 15   8.7 -9.7  1022.7    0.0   0.0   0.0   0.0   ----- 
Tue 21:00    E 11/ 13   8.5 -7.6  1023.1    0.0   0.0   0.0   0.0   ----- 
Tue 21:30    E  7/  9   8.8 -7.0  1023.4    0.0   0.0   0.0   0.0   ----- 
Tue 22:00    E  9/  9   7.6 -7.6  1023.4    0.0   0.0   0.0   0.0   ----- 
Tue 22:30    E 11/ 13   6.5 -7.8  1023.5    0.0   0.0   0.0   0.0   ----- 
Tue 23:00    E 13/ 15   8.9 -5.7  1023.5    0.0   0.0   0.0   0.0   ----- 
Tue 23:30  ENE 13/ 17   9.1 -5.9  1023.0    0.0   0.0   0.0   0.0   ----- 
Wed 00:00    E 11/ 13   7.9 -6.6  1023.0    0.0   0.0   0.0   0.0   ----- 
Wed 00:30    E 11/ 11   5.3 -7.5  1022.8    0.0   0.0   0.0   0.0   ----- 
Wed 00:30    E 11/ 11   5.3 -7.5  1022.8    0.0   0.0  ----   0.0   ----- 

WALUNGURRU AIRPORT

Site: 015664
Alt: 454.3m
272km WSW of YUENDUMU


  Time     Wind        Temp  DP   Baro     Rain since   Rain past  Vis(m), Cloud(base in m), Weather
  local        km/h                         9am  last   hr   10m    
Tue 19:30  SSW  9/ 13  16.3-10.3  1022.7    0.0   0.0   0.0   0.0   ----- 
Tue 20:00    S  9/ 15  17.1 -9.7  1023.1    0.0   0.0   0.0   0.0   ----- 
Tue 20:30    S 13/ 17  17.4 -9.5  1023.6    0.0   0.0   0.0   0.0   ----- 
Tue 21:00    S 11/ 13  16.0 -9.8  1023.7    0.0   0.0   0.0   0.0   ----- 
Tue 21:30    S 13/ 15  15.0 -9.1  1023.7    0.0   0.0   0.0   0.0   ----- 
Tue 22:00   SE 11/ 13  13.7 -8.8  1023.7    0.0   0.0   0.0   0.0   ----- 
Tue 22:30    S 15/ 15  14.4 -8.9  1023.3    0.0   0.0   0.0   0.0   ----- 
Tue 23:00    S 13/ 17  14.4 -8.2  1023.6    0.0   0.0   0.0   0.0   ----- 
Tue 23:30    S 11/ 15  14.4 -8.2  1023.5    0.0   0.0   0.0   0.0   ----- 
Wed 00:00  SSE 15/ 20  15.7 -7.8  1023.3    0.0   0.0   0.0   0.0   ----- 
Wed 00:30    S 13/ 15  14.9 -8.5  1023.3    0.0   0.0   0.0   0.0   ----- 
Wed 00:30    S 13/ 15  14.9 -8.5  1023.3    0.0   0.0  ----   0.0   ----- 

YULARA AIRPORT

Site: 015635
Alt: 492.0m
7km N of YULARA


  Time     Wind        Temp  DP   Baro     Rain since   Rain past  Vis(m), Cloud(base in m), Weather
  local        km/h                         9am  last   hr   10m    
Tue 19:30    S  6/  7  13.7 -7.6  1023.4    0.0   0.0   0.0   0.0   10000 
Tue 20:00    C  0/  0  12.6 -8.0  1023.8    0.0   0.0   0.0   0.0   10000 
Tue 20:30   SW  7/  7  12.5 -7.5  1024.2    0.0   0.0   0.0   0.0   10000 
Tue 21:00    C  0/  0  13.0 -7.6  1024.2    0.0   0.0   0.0   0.0   10000 
Tue 21:30    C  0/  0  12.6 -7.4  1024.1    0.0   0.0   0.0   0.0   10000 
Tue 22:00    S  6/  7  12.6 -7.4  1024.3    0.0   0.0   0.0   0.0   10000 
Tue 22:30  SSW  4/  9  12.5 -7.5  1024.4    0.0   0.0   0.0   0.0   10000 
Tue 23:00  SSW 11/ 13  12.9 -7.2  1024.3    0.0   0.0   0.0   0.0   10000 
Tue 23:30  SSW 11/ 15  12.9 -7.2  1024.4    0.0   0.0   0.0   0.0   10000 
Wed 00:00    S  9/ 11  12.6 -7.4  1024.3    0.0   0.0   0.0   0.0   10000 
Wed 00:30    S  9/ 13  12.1 -7.3  1024.3    0.0   0.0   0.0   0.0   10000 
Wed 00:30    S  9/ 13  12.1 -7.3  1024.3    0.0   0.0  ----   0.0   10000